createdAt,value
2022-10-05T00:01:25.941Z,100.00
2022-10-05T00:04:29.176Z,100.00
2022-10-05T00:07:33.391Z,100.00
2022-10-05T00:10:36.230Z,100.00
2022-10-05T00:13:41.018Z,100.00
2022-10-05T00:16:44.305Z,100.00
2022-10-05T00:19:52.107Z,100.00
2022-10-05T00:22:58.724Z,100.00
2022-10-05T00:26:12.958Z,100.00
2022-10-05T00:29:22.640Z,100.00
2022-10-05T00:32:25.595Z,100.00
2022-10-05T00:35:30.837Z,100.00
2022-10-05T00:38:35.052Z,100.00
2022-10-05T00:41:53.969Z,100.00
2022-10-05T00:45:03.122Z,100.00
2022-10-05T00:48:19.762Z,100.00
2022-10-05T00:51:27.745Z,100.00
2022-10-05T00:54:41.332Z,100.00
2022-10-05T00:57:54.947Z,100.00
2022-10-05T01:01:07.662Z,100.00
2022-10-05T01:04:18.057Z,100.00
2022-10-05T01:07:33.554Z,100.00
2022-10-05T01:10:44.316Z,100.00
2022-10-05T01:13:54.044Z,100.00
2022-10-05T01:17:02.954Z,100.00
2022-10-05T01:20:28.269Z,100.00
2022-10-05T01:24:26.966Z,100.00
2022-10-05T01:27:55.413Z,100.00
2022-10-05T01:31:07.123Z,100.00
2022-10-05T01:34:18.023Z,100.00
2022-10-05T01:37:27.253Z,100.00
2022-10-05T01:40:38.313Z,100.00
2022-10-05T01:43:47.957Z,100.00
2022-10-05T01:46:59.663Z,100.00
2022-10-05T01:50:05.604Z,100.00
2022-10-05T01:53:16.810Z,100.00
2022-10-05T01:56:31.490Z,100.00
2022-10-05T01:59:51.037Z,100.00
2022-10-05T02:02:59.071Z,100.00
2022-10-05T02:06:07.716Z,100.00
2022-10-05T02:09:16.176Z,100.00
2022-10-05T02:12:22.511Z,100.00
2022-10-05T02:15:31.151Z,100.00
2022-10-05T02:18:39.122Z,100.00
2022-10-05T02:21:44.761Z,100.00
2022-10-05T02:24:52.907Z,100.00
2022-10-05T02:28:02.309Z,100.00
2022-10-05T02:31:12.251Z,100.00
2022-10-05T02:34:23.973Z,100.00
2022-10-05T02:37:35.341Z,100.00
2022-10-05T02:40:50.882Z,100.00
2022-10-05T02:44:03.171Z,100.00
2022-10-05T02:47:17.429Z,100.00
2022-10-05T02:50:27.192Z,100.00
2022-10-05T02:53:39.519Z,100.00
2022-10-05T02:56:52.200Z,100.00
2022-10-05T03:00:05.118Z,100.00
2022-10-05T03:03:20.515Z,100.00
2022-10-05T03:06:28.382Z,100.00
2022-10-05T03:09:38.564Z,100.00
2022-10-05T03:12:53.533Z,100.00
2022-10-05T03:16:12.386Z,100.00
2022-10-05T03:19:32.456Z,100.00
2022-10-05T03:22:48.027Z,100.00
2022-10-05T03:26:09.958Z,100.00
2022-10-05T03:29:27.191Z,100.00
2022-10-05T03:32:40.948Z,100.00
2022-10-05T03:35:53.079Z,100.00
2022-10-05T03:39:04.057Z,100.00
2022-10-05T03:42:16.815Z,100.00
2022-10-05T03:45:28.758Z,100.00
2022-10-05T03:48:39.127Z,100.00
2022-10-05T03:51:48.053Z,100.00
2022-10-05T03:54:55.714Z,100.00
2022-10-05T03:58:04.270Z,100.00
2022-10-05T04:01:14.419Z,100.00
2022-10-05T04:04:24.850Z,100.00
2022-10-05T04:07:37.426Z,100.00
2022-10-05T04:10:45.119Z,100.00
2022-10-05T04:13:53.071Z,100.00
2022-10-05T04:17:00.697Z,100.00
2022-10-05T04:20:08.909Z,100.00
2022-10-05T04:23:20.529Z,100.00
2022-10-05T04:26:32.057Z,100.00
2022-10-05T04:29:41.058Z,100.00
2022-10-05T04:32:45.757Z,100.00
2022-10-05T04:36:13.931Z,100.00
2022-10-05T04:39:29.748Z,100.00
2022-10-05T04:42:37.931Z,100.00
2022-10-05T04:45:56.662Z,100.00
2022-10-05T04:49:15.463Z,100.00
2022-10-05T04:52:26.644Z,100.00
2022-10-05T04:55:41.207Z,100.00
2022-10-05T04:59:01.562Z,100.00
2022-10-05T05:02:14.880Z,100.00
2022-10-05T05:05:53.045Z,100.00
2022-10-05T05:09:27.736Z,100.00
2022-10-05T05:12:45.597Z,100.00
2022-10-05T05:15:54.047Z,100.00
2022-10-05T05:19:34.798Z,100.00
2022-10-05T05:22:47.990Z,100.00
2022-10-05T05:26:00.789Z,100.00
2022-10-05T05:29:15.608Z,100.00
2022-10-05T05:32:28.242Z,100.00
2022-10-05T05:36:04.181Z,100.00
2022-10-05T05:39:22.915Z,100.00
2022-10-05T05:42:35.326Z,100.00
2022-10-05T05:45:43.643Z,100.00
2022-10-05T05:48:48.913Z,100.00
2022-10-05T05:52:00.624Z,100.00
2022-10-05T05:55:15.238Z,100.00
2022-10-05T05:58:24.642Z,100.00
2022-10-05T06:01:34.773Z,100.00
2022-10-05T06:04:49.063Z,100.00
2022-10-05T06:07:53.929Z,100.00
2022-10-05T06:11:02.466Z,100.00
2022-10-05T06:14:11.630Z,100.00
2022-10-05T06:17:20.998Z,100.00
2022-10-05T06:20:29.042Z,100.00
2022-10-05T06:23:40.457Z,100.00
2022-10-05T06:27:17.058Z,100.00
2022-10-05T06:30:20.221Z,100.00
2022-10-05T06:33:49.413Z,100.00
2022-10-05T06:37:01.169Z,100.00
2022-10-05T06:40:24.543Z,100.00
2022-10-05T06:43:41.791Z,100.00
2022-10-05T06:47:19.193Z,100.00
2022-10-05T06:50:48.399Z,100.00
2022-10-05T06:54:10.465Z,100.00
2022-10-05T06:57:40.531Z,100.00
2022-10-05T07:00:50.973Z,100.00
2022-10-05T07:04:18.884Z,100.00
2022-10-05T07:07:31.497Z,100.00
2022-10-05T07:10:42.442Z,100.00
2022-10-05T07:14:09.273Z,100.00
2022-10-05T07:17:26.403Z,100.00
2022-10-05T07:20:34.854Z,100.00
2022-10-05T07:23:49.149Z,100.00
2022-10-05T07:26:58.789Z,100.00
2022-10-05T07:30:04.643Z,100.00
2022-10-05T07:33:18.782Z,100.00
2022-10-05T07:36:54.427Z,100.00
2022-10-05T07:40:09.844Z,100.00
2022-10-05T07:43:29.253Z,100.00
2022-10-05T07:46:51.122Z,100.00
2022-10-05T07:50:01.766Z,100.00
2022-10-05T07:53:14.344Z,100.00
2022-10-05T07:56:26.814Z,100.00
2022-10-05T07:59:35.835Z,100.00
2022-10-05T08:02:45.449Z,100.00
2022-10-05T08:05:48.509Z,100.00
2022-10-05T08:08:57.401Z,100.00
2022-10-05T08:12:11.589Z,100.00
2022-10-05T08:15:17.461Z,100.00
2022-10-05T08:18:38.097Z,100.00
2022-10-05T08:21:45.695Z,100.00
2022-10-05T08:24:56.972Z,100.00
2022-10-05T08:28:07.379Z,100.00
2022-10-05T08:31:17.874Z,100.00
2022-10-05T08:34:27.541Z,100.00
2022-10-05T08:37:35.592Z,100.00
2022-10-05T08:41:26.875Z,100.00
2022-10-05T08:44:59.247Z,100.00
2022-10-05T08:48:22.946Z,100.00
2022-10-05T08:51:49.978Z,100.00
2022-10-05T08:55:24.266Z,100.00
2022-10-05T08:58:58.653Z,100.00
2022-10-05T09:02:21.644Z,100.00
2022-10-05T09:05:44.798Z,100.00
2022-10-05T09:09:02.272Z,100.00
2022-10-05T09:12:33.196Z,100.00
2022-10-05T09:15:58.487Z,100.00
2022-10-05T09:19:28.054Z,100.00
2022-10-05T09:23:11.054Z,100.00
2022-10-05T09:26:44.064Z,100.00
2022-10-05T09:30:18.480Z,100.00
2022-10-05T09:34:10.604Z,100.00
2022-10-05T09:37:49.322Z,100.00
2022-10-05T09:41:42.117Z,100.00
2022-10-05T09:45:21.147Z,100.00
2022-10-05T09:48:57.737Z,100.00
2022-10-05T09:52:18.772Z,100.00
2022-10-05T09:56:01.310Z,100.00
2022-10-05T09:59:48.778Z,100.00
2022-10-05T10:03:24.271Z,100.00
2022-10-05T10:06:47.566Z,100.00
2022-10-05T10:10:21.462Z,100.00
2022-10-05T10:14:05.541Z,100.00
2022-10-05T10:17:33.554Z,100.00
2022-10-05T10:21:14.849Z,100.00
2022-10-05T10:24:36.223Z,100.00
2022-10-05T10:28:04.550Z,100.00
2022-10-05T10:31:32.810Z,99.25
2022-10-05T10:35:00.804Z,100.00
2022-10-05T10:38:31.042Z,100.00
2022-10-05T10:41:58.888Z,100.00
2022-10-05T10:45:33.890Z,100.00
2022-10-05T10:48:54.005Z,100.00
2022-10-05T10:52:23.373Z,100.00
2022-10-05T10:55:34.983Z,100.00
2022-10-05T10:58:58.660Z,100.00
2022-10-05T11:02:30.129Z,100.00
2022-10-05T11:05:58.924Z,100.00
2022-10-05T11:09:26.073Z,100.00
2022-10-05T11:12:58.105Z,100.00
2022-10-05T11:16:35.050Z,100.00
2022-10-05T11:20:03.518Z,100.00
2022-10-05T11:23:38.789Z,100.00
2022-10-05T11:27:08.382Z,100.00
2022-10-05T11:30:27.433Z,100.00
2022-10-05T11:34:03.249Z,100.00
2022-10-05T11:37:31.955Z,100.00
2022-10-05T11:40:58.806Z,100.00
2022-10-05T11:44:43.016Z,100.00
2022-10-05T11:47:58.451Z,100.00
2022-10-05T11:51:35.378Z,100.00
2022-10-05T11:55:10.361Z,100.00
2022-10-05T11:58:21.954Z,100.00
2022-10-05T12:01:30.482Z,100.00
2022-10-05T12:04:46.606Z,100.00
2022-10-05T12:08:04.003Z,100.00
2022-10-05T12:11:16.952Z,100.00
2022-10-05T12:14:28.993Z,100.00
2022-10-05T12:17:37.685Z,100.00
2022-10-05T12:20:47.022Z,100.00
2022-10-05T12:23:54.904Z,100.00
2022-10-05T12:27:02.988Z,100.00
2022-10-05T12:30:16.082Z,100.00
2022-10-05T12:33:25.809Z,100.00
2022-10-05T12:37:02.488Z,100.00
2022-10-05T12:40:06.187Z,100.00
2022-10-05T12:43:21.442Z,100.00
2022-10-05T12:46:35.066Z,100.00
2022-10-05T12:49:51.178Z,100.00
2022-10-05T12:53:09.530Z,100.00
2022-10-05T12:56:21.600Z,100.00
2022-10-05T12:59:36.777Z,100.00
2022-10-05T13:02:47.021Z,100.00
2022-10-05T13:05:59.049Z,100.00
2022-10-05T13:09:13.014Z,100.00
2022-10-05T13:12:29.843Z,100.00
2022-10-05T13:15:37.308Z,91.22
2022-10-05T13:18:54.383Z,87.62
2022-10-05T13:22:26.563Z,85.74
2022-10-05T13:25:33.754Z,85.57
2022-10-05T13:28:42.812Z,88.72
2022-10-05T13:31:49.019Z,88.64
2022-10-05T13:35:01.457Z,85.24
2022-10-05T13:38:12.452Z,86.00
2022-10-05T13:41:25.911Z,81.81
2022-10-05T13:44:36.196Z,84.35
2022-10-05T13:47:51.861Z,86.15
2022-10-05T13:51:06.974Z,88.28
2022-10-05T13:54:19.169Z,90.89
2022-10-05T13:57:36.259Z,88.28
2022-10-05T14:00:47.945Z,86.33
2022-10-05T14:04:11.121Z,85.60
2022-10-05T14:07:31.338Z,89.01
2022-10-05T14:10:40.322Z,88.84
2022-10-05T14:13:47.588Z,90.33
2022-10-05T14:16:53.584Z,92.66
2022-10-05T14:19:59.943Z,94.22
2022-10-05T14:23:12.081Z,94.77
2022-10-05T14:26:33.573Z,95.95
2022-10-05T14:29:39.245Z,94.69
2022-10-05T14:32:49.823Z,97.75
2022-10-05T14:35:54.721Z,100.00
2022-10-05T14:39:02.081Z,98.65
2022-10-05T14:42:15.893Z,98.63
2022-10-05T14:45:21.645Z,100.00
2022-10-05T14:48:27.948Z,100.00
2022-10-05T14:51:33.208Z,100.00
2022-10-05T14:54:54.043Z,100.00
2022-10-05T14:58:11.259Z,100.00
2022-10-05T15:01:24.110Z,100.00
2022-10-05T15:04:49.946Z,100.00
2022-10-05T15:07:58.088Z,100.00
2022-10-05T15:11:07.626Z,100.00
2022-10-05T15:14:18.574Z,100.00
2022-10-05T15:17:27.076Z,100.00
2022-10-05T15:20:37.210Z,100.00
2022-10-05T15:23:47.336Z,100.00
2022-10-05T15:26:54.643Z,100.00
2022-10-05T15:30:06.328Z,100.00
2022-10-05T15:33:16.114Z,100.00
2022-10-05T15:36:24.299Z,100.00
2022-10-05T15:39:35.348Z,100.00
2022-10-05T15:42:41.647Z,100.00
2022-10-05T15:45:53.915Z,100.00
2022-10-05T15:49:12.809Z,100.00
2022-10-05T15:52:26.131Z,100.00
2022-10-05T15:55:44.195Z,100.00
2022-10-05T15:58:55.502Z,100.00
2022-10-05T16:02:01.871Z,100.00
2022-10-05T16:05:40.781Z,100.00
2022-10-05T16:08:55.779Z,100.00
2022-10-05T16:12:07.314Z,100.00
2022-10-05T16:15:22.193Z,100.00
2022-10-05T16:18:55.091Z,100.00
2022-10-05T16:22:06.200Z,100.00
2022-10-05T16:25:16.378Z,100.00
2022-10-05T16:28:29.910Z,100.00
2022-10-05T16:31:41.568Z,100.00
2022-10-05T16:34:57.890Z,100.00
2022-10-05T16:38:09.876Z,100.00
2022-10-05T16:41:20.280Z,100.00
2022-10-05T16:44:35.749Z,100.00
2022-10-05T16:47:50.282Z,100.00
2022-10-05T16:51:07.600Z,100.00
2022-10-05T16:54:19.136Z,100.00
2022-10-05T16:57:24.937Z,100.00
2022-10-05T17:00:38.687Z,100.00
2022-10-05T17:03:58.303Z,100.00
2022-10-05T17:07:22.008Z,100.00
2022-10-05T17:10:43.060Z,100.00
2022-10-05T17:14:00.342Z,100.00
2022-10-05T17:17:23.613Z,100.00
2022-10-05T17:20:46.084Z,100.00
2022-10-05T17:23:54.870Z,100.00
2022-10-05T17:27:03.662Z,100.00
2022-10-05T17:30:48.579Z,100.00
2022-10-05T17:34:27.355Z,100.00
2022-10-05T17:37:38.438Z,100.00
2022-10-05T17:41:03.320Z,100.00
2022-10-05T17:44:27.782Z,100.00
2022-10-05T17:47:58.667Z,100.00
2022-10-05T17:51:19.320Z,100.00
2022-10-05T17:54:42.830Z,100.00
2022-10-05T17:57:45.846Z,100.00
2022-10-05T18:01:20.402Z,100.00
2022-10-05T18:04:46.175Z,100.00
2022-10-05T18:08:09.891Z,100.00
2022-10-05T18:11:35.468Z,100.00
2022-10-05T18:14:57.148Z,100.00
2022-10-05T18:18:32.866Z,100.00
2022-10-05T18:21:38.881Z,100.00
2022-10-05T18:25:03.951Z,100.00
2022-10-05T18:28:21.828Z,100.00
2022-10-05T18:31:34.307Z,100.00
2022-10-05T18:34:43.589Z,100.00
2022-10-05T18:37:57.264Z,100.00
2022-10-05T18:41:09.221Z,100.00
2022-10-05T18:44:31.069Z,100.00
2022-10-05T18:47:42.645Z,100.00
2022-10-05T18:50:52.766Z,100.00
2022-10-05T18:54:09.286Z,100.00
2022-10-05T18:57:37.701Z,100.00
2022-10-05T19:01:09.772Z,100.00
2022-10-05T19:04:24.669Z,100.00
2022-10-05T19:07:34.584Z,100.00
2022-10-05T19:10:44.626Z,100.00
2022-10-05T19:13:55.817Z,100.00
2022-10-05T19:17:24.780Z,100.00
2022-10-05T19:20:34.143Z,100.00
2022-10-05T19:23:57.589Z,100.00
2022-10-05T19:27:10.615Z,100.00
2022-10-05T19:30:20.835Z,100.00
2022-10-05T19:33:46.821Z,100.00
2022-10-05T19:37:04.514Z,100.00
2022-10-05T19:40:17.774Z,100.00
2022-10-05T19:43:40.506Z,100.00
2022-10-05T19:46:55.137Z,100.00
2022-10-05T19:50:03.458Z,100.00
2022-10-05T19:53:13.317Z,100.00
2022-10-05T19:56:21.189Z,100.00
2022-10-05T19:59:27.588Z,100.00
2022-10-05T20:02:32.030Z,100.00
2022-10-05T20:05:36.582Z,100.00
2022-10-05T20:08:41.869Z,100.00
2022-10-05T20:11:50.924Z,100.00
2022-10-05T20:15:25.911Z,100.00
2022-10-05T20:19:06.360Z,100.00
2022-10-05T20:25:40.259Z,100.00
2022-10-05T20:28:44.409Z,100.00
2022-10-05T20:31:47.606Z,100.00
2022-10-05T20:34:51.183Z,100.00
2022-10-05T20:37:54.434Z,100.00
2022-10-05T20:40:58.735Z,100.00
2022-10-05T20:44:01.730Z,100.00
2022-10-05T20:47:04.975Z,100.00
2022-10-05T20:50:09.679Z,100.00
2022-10-05T20:53:13.183Z,100.00
2022-10-05T20:56:19.940Z,100.00
2022-10-05T20:59:23.957Z,100.00
2022-10-05T21:02:27.288Z,100.00
2022-10-05T21:05:30.530Z,100.00
2022-10-05T21:08:34.759Z,100.00
2022-10-05T21:11:40.674Z,100.00
2022-10-05T21:14:43.875Z,100.00
2022-10-05T21:17:46.748Z,100.00
2022-10-05T21:20:50.070Z,100.00
2022-10-05T21:23:53.000Z,100.00
2022-10-05T21:26:57.696Z,100.00
2022-10-05T21:30:00.981Z,100.00
2022-10-05T21:33:04.103Z,100.00
2022-10-05T21:36:07.104Z,100.00
2022-10-05T21:39:10.046Z,100.00
2022-10-05T21:42:14.238Z,100.00
2022-10-05T21:45:17.291Z,100.00
2022-10-05T21:48:20.521Z,100.00
2022-10-05T21:51:26.323Z,100.00
2022-10-05T21:54:29.259Z,100.00
2022-10-05T21:57:35.681Z,100.00
2022-10-05T22:00:38.621Z,100.00
2022-10-05T22:03:41.716Z,100.00
2022-10-05T22:06:44.905Z,100.00
2022-10-05T22:09:48.620Z,100.00
2022-10-05T22:12:52.961Z,100.00
2022-10-05T22:15:56.714Z,100.00
2022-10-05T22:19:00.147Z,100.00
2022-10-05T22:22:03.249Z,100.00
2022-10-05T22:25:06.904Z,100.00
2022-10-05T22:28:15.934Z,100.00
2022-10-05T22:31:19.830Z,100.00
2022-10-05T22:34:22.915Z,100.00
2022-10-05T22:37:25.856Z,100.00
2022-10-05T22:40:28.805Z,100.00
2022-10-05T22:43:33.018Z,100.00
2022-10-05T22:46:36.223Z,100.00
2022-10-05T22:49:39.213Z,100.00
2022-10-05T22:52:42.602Z,100.00
2022-10-05T22:55:45.535Z,100.00
2022-10-05T22:58:51.097Z,100.00
2022-10-05T23:01:54.094Z,100.00
2022-10-05T23:04:59.168Z,100.00
2022-10-05T23:08:03.134Z,100.00
2022-10-05T23:11:07.728Z,100.00
2022-10-05T23:14:11.996Z,100.00
2022-10-05T23:17:15.019Z,100.00
2022-10-05T23:20:18.083Z,100.00
2022-10-05T23:23:21.052Z,100.00
2022-10-05T23:26:26.081Z,100.00
2022-10-05T23:29:30.356Z,100.00
2022-10-05T23:32:33.525Z,100.00
2022-10-05T23:35:36.443Z,100.00
2022-10-05T23:38:39.304Z,100.00
2022-10-05T23:41:44.306Z,100.00
2022-10-05T23:44:48.758Z,100.00
2022-10-05T23:47:51.603Z,100.00
2022-10-05T23:50:56.419Z,100.00
2022-10-05T23:53:59.394Z,100.00
2022-10-05T23:57:02.302Z,100.00
